Time;durP1;ratioP1;P1;durP2;ratioP2;P2;SDS_P1;SDS_P2;PMS_P1;PMS_P2;Temp;Humidity;BMP_temperature;BMP_pressure;BME280_temperature;BME280_humidity;BME280_pressure;Samples;Min_cycle;Max_cycle;Signal;HPM_P1;HPM_P2
2022/12/07 00:02:01;;;;;;;;;;;11.20;99.90;;;;;;4968468;28;19918;-75
2022/12/07 00:04:26;;;;;;;;;;;11.20;99.90;;;;;;4964036;28;20319;-73
2022/12/07 00:06:52;;;;;;;;;;;11.20;99.90;;;;;;4967326;28;19934;-73
2022/12/07 00:09:19;;;;;;;;;;;11.20;99.90;;;;;;4960561;28;19910;-74
2022/12/07 00:11:47;;;;;;;;;;;11.30;99.90;;;;;;4988089;28;19914;-73
2022/12/07 00:14:13;;;;;;;;;;;11.30;99.90;;;;;;4966771;28;19914;-74
2022/12/07 00:16:39;;;;;;;;;;;11.40;99.90;;;;;;4981164;28;19918;-73
2022/12/07 00:19:05;;;;;;;;;;;11.00;99.90;;;;;;4993013;28;20005;-73
2022/12/07 00:21:31;;;;;;;;;;;10.70;99.90;;;;;;4977529;28;19910;-73
2022/12/07 00:23:57;;;;;;;;;;;10.50;99.90;;;;;;4981546;28;19997;-74
2022/12/07 00:26:24;;;;;;;;;;;10.40;99.90;;;;;;4981490;28;19969;-73
2022/12/07 00:28:51;;;;;;;;;;;10.40;99.90;;;;;;4982803;28;20160;-73
2022/12/07 00:31:18;;;;;;;;;;;10.00;99.90;;;;;;4981635;28;20044;-73
2022/12/07 00:33:44;;;;;;;;;;;9.90;99.90;;;;;;4976420;28;19926;-73
2022/12/07 00:36:11;;;;;;;;;;;10.00;99.90;;;;;;4981583;28;19913;-73
2022/12/07 00:38:37;;;;;;;;;;;10.20;99.90;;;;;;4971903;28;19914;-70
2022/12/07 00:41:04;;;;;;;;;;;10.20;99.90;;;;;;4976064;28;19921;-72
2022/12/07 00:43:30;;;;;;;;;;;10.40;99.90;;;;;;4973718;28;20040;-72
2022/12/07 00:45:55;;;;;;;;;;;10.50;99.90;;;;;;4971199;28;20002;-74
2022/12/07 00:48:21;;;;;;;;;;;10.50;99.90;;;;;;4965702;28;19914;-72
2022/12/07 00:50:47;;;;;;;;;;;10.60;99.90;;;;;;4965101;28;19925;-72
2022/12/07 00:53:13;;;;;;;;;;;10.60;99.90;;;;;;4990235;28;20295;-73
2022/12/07 00:55:38;;;;;;;;;;;10.70;99.90;;;;;;4965340;28;19914;-73
2022/12/07 00:58:04;;;;;;;;;;;10.80;99.90;;;;;;4968454;28;19921;-72
2022/12/07 01:00:30;;;;;;;;;;;10.80;99.90;;;;;;4963970;28;19922;-73
2022/12/07 01:02:55;;;;;;;;;;;10.80;99.90;;;;;;4972387;28;19910;-75
2022/12/07 01:05:20;;;;;;;;;;;10.50;99.90;;;;;;4969791;28;19995;-73
2022/12/07 01:07:46;;;;;;;;;;;10.50;99.90;;;;;;4976297;28;19914;-73
2022/12/07 01:10:12;;;;;;;;;;;10.50;99.90;;;;;;4972581;28;20026;-72
2022/12/07 01:12:37;;;;;;;;;;;10.30;99.90;;;;;;4981302;28;19914;-72
2022/12/07 01:15:03;;;;;;;;;;;10.20;99.90;;;;;;4971277;28;19914;-74
2022/12/07 01:17:29;;;;;;;;;;;10.30;99.90;;;;;;4980155;28;20376;-73
2022/12/07 01:19:54;;;;;;;;;;;10.20;99.90;;;;;;4974986;28;19940;-74
2022/12/07 01:22:20;;;;;;;;;;;10.40;99.90;;;;;;4972958;28;19981;-74
2022/12/07 01:24:46;;;;;;;;;;;10.30;99.90;;;;;;4972249;28;19914;-73
2022/12/07 01:27:12;;;;;;;;;;;10.20;99.90;;;;;;4970758;28;19915;-75
2022/12/07 01:29:38;;;;;;;;;;;10.10;99.90;;;;;;4973931;28;19914;-74
2022/12/07 01:32:03;;;;;;;;;;;10.20;99.90;;;;;;4966814;28;19918;-74
2022/12/07 01:34:29;;;;;;;;;;;10.40;99.90;;;;;;4966388;28;19914;-72
2022/12/07 01:36:54;;;;;;;;;;;10.50;99.90;;;;;;4974118;28;19922;-73
2022/12/07 01:39:20;;;;;;;;;;;10.50;99.90;;;;;;4985535;28;19952;-72
2022/12/07 01:41:45;;;;;;;;;;;10.30;99.90;;;;;;4977976;28;20364;-73
2022/12/07 01:44:32;;;;;;;;;;;10.30;99.90;;;;;;4987674;28;19956;-72
2022/12/07 01:46:59;;;;;;;;;;;10.40;99.90;;;;;;4991443;28;20066;-73
2022/12/07 01:49:33;;;;;;;;;;;10.50;99.90;;;;;;4987653;28;20155;-74
2022/12/07 01:52:14;;;;;;;;;;;10.20;99.90;;;;;;4974484;28;20427;-73
2022/12/07 01:54:40;;;;;;;;;;;10.20;99.90;;;;;;4973786;28;19985;-73
2022/12/07 01:57:07;;;;;;;;;;;10.20;99.90;;;;;;4976162;28;20376;-74
2022/12/07 01:59:33;;;;;;;;;;;10.50;99.90;;;;;;4968389;28;19918;-74
2022/12/07 02:01:59;;;;;;;;;;;10.50;99.90;;;;;;4970883;28;20029;-73
2022/12/07 02:04:24;;;;;;;;;;;10.60;99.90;;;;;;4974609;28;20537;-74
2022/12/07 02:06:50;;;;;;;;;;;10.50;99.90;;;;;;4964456;28;20761;-74
2022/12/07 02:09:15;;;;;;;;;;;10.70;99.90;;;;;;4971258;28;20323;-73
2022/12/07 02:11:41;;;;;;;;;;;10.50;99.90;;;;;;4990139;28;20006;-73
2022/12/07 02:14:07;;;;;;;;;;;10.40;99.90;;;;;;4963114;28;19920;-73
2022/12/07 02:16:44;;;;;;;;;;;10.40;99.90;;;;;;4973120;28;19969;-74
2022/12/07 02:19:28;;;;;;;;;;;10.20;99.90;;;;;;4969806;28;19933;-71
2022/12/07 02:22:00;;;;;;;;;;;10.10;99.90;;;;;;4986917;28;19918;-72
2022/12/07 02:24:31;;;;;;;;;;;10.00;99.90;;;;;;4980677;28;20268;-73
2022/12/07 02:27:00;;;;;;;;;;;9.70;99.90;;;;;;4979524;28;20506;-73
2022/12/07 02:29:30;;;;;;;;;;;9.90;99.90;;;;;;4974396;28;19973;-74
2022/12/07 02:32:01;;;;;;;;;;;10.00;99.90;;;;;;4997235;28;19972;-73
2022/12/07 02:34:33;;;;;;;;;;;9.70;99.90;;;;;;5001354;28;19915;-73
2022/12/07 02:37:01;;;;;;;;;;;9.50;99.90;;;;;;4990581;28;20615;-73
2022/12/07 02:39:27;;;;;;;;;;;9.60;99.90;;;;;;4986009;28;20277;-72
2022/12/07 02:41:55;;;;;;;;;;;9.60;99.90;;;;;;4983918;28;19981;-73
2022/12/07 02:44:23;;;;;;;;;;;9.70;99.90;;;;;;4984078;28;19910;-74
2022/12/07 02:47:03;;;;;;;;;;;9.70;99.90;;;;;;4985953;28;19961;-72
2022/12/07 02:49:29;;;;;;;;;;;9.60;99.90;;;;;;4969530;28;19918;-71
2022/12/07 02:51:54;;;;;;;;;;;9.50;99.90;;;;;;4958977;28;20339;-72
2022/12/07 02:54:20;;;;;;;;;;;9.60;99.90;;;;;;4965590;28;19940;-72
2022/12/07 02:57:05;;;;;;;;;;;9.50;99.90;;;;;;4965391;28;19957;-72
2022/12/07 02:59:47;;;;;;;;;;;9.50;99.90;;;;;;4962963;28;20000;-74
2022/12/07 03:02:25;;;;;;;;;;;9.30;99.90;;;;;;4976399;28;19925;-74
2022/12/07 03:04:56;;;;;;;;;;;9.30;99.90;;;;;;4992873;28;19914;-72
2022/12/07 03:07:37;;;;;;;;;;;9.30;99.90;;;;;;4972486;28;19910;-72
2022/12/07 03:10:08;;;;;;;;;;;9.10;99.90;;;;;;4965403;28;20586;-73
2022/12/07 03:12:42;;;;;;;;;;;9.00;99.90;;;;;;4959369;28;20057;-73
2022/12/07 03:15:16;;;;;;;;;;;8.80;99.90;;;;;;4964421;28;19921;-73
2022/12/07 03:17:44;;;;;;;;;;;9.00;99.90;;;;;;4964014;28;20376;-74
2022/12/07 03:20:11;;;;;;;;;;;9.10;99.90;;;;;;4966493;28;19914;-72
2022/12/07 03:22:38;;;;;;;;;;;9.20;99.90;;;;;;4961588;28;20362;-73
2022/12/07 03:25:06;;;;;;;;;;;9.10;99.90;;;;;;4981319;28;19929;-73
2022/12/07 03:27:52;;;;;;;;;;;9.10;99.90;;;;;;4971476;28;20398;-72
2022/12/07 03:30:22;;;;;;;;;;;9.20;99.90;;;;;;4981629;28;19956;-74
2022/12/07 03:32:56;;;;;;;;;;;9.40;99.90;;;;;;4968313;28;20001;-73
2022/12/07 03:35:24;;;;;;;;;;;9.30;99.90;;;;;;4987907;28;19953;-74
2022/12/07 03:37:53;;;;;;;;;;;9.40;99.90;;;;;;4991768;28;19954;-73
2022/12/07 03:40:30;;;;;;;;;;;9.40;99.90;;;;;;4982100;28;19934;-72
2022/12/07 03:42:56;;;;;;;;;;;9.70;99.90;;;;;;4965434;28;20009;-73
2022/12/07 03:45:25;;;;;;;;;;;9.80;99.90;;;;;;4971369;28;19909;-74
2022/12/07 03:48:00;;;;;;;;;;;9.90;99.90;;;;;;4964298;28;19940;-73
2022/12/07 03:50:29;;;;;;;;;;;9.90;99.90;;;;;;4963995;28;19914;-73
2022/12/07 03:53:05;;;;;;;;;;;9.80;99.90;;;;;;4963172;28;19949;-71
2022/12/07 03:55:32;;;;;;;;;;;9.80;99.90;;;;;;4971362;28;19941;-73
2022/12/07 03:58:06;;;;;;;;;;;9.90;99.90;;;;;;4961873;28;19961;-76
2022/12/07 04:00:31;;;;;;;;;;;9.90;99.90;;;;;;4975218;28;20001;-75
2022/12/07 04:02:57;;;;;;;;;;;9.80;99.90;;;;;;4973705;28;19914;-75
2022/12/07 04:05:23;;;;;;;;;;;9.90;99.90;;;;;;4972368;28;19909;-75
2022/12/07 04:07:49;;;;;;;;;;;9.80;99.90;;;;;;4967330;28;19997;-74
2022/12/07 04:10:14;;;;;;;;;;;9.70;99.90;;;;;;4972326;28;19922;-75
2022/12/07 04:12:40;;;;;;;;;;;9.60;99.90;;;;;;4975410;28;20008;-77
2022/12/07 04:15:06;;;;;;;;;;;9.70;99.90;;;;;;4981097;28;19910;-76
2022/12/07 04:17:31;;;;;;;;;;;9.80;99.90;;;;;;4973673;28;19933;-75
2022/12/07 04:19:57;;;;;;;;;;;9.80;99.90;;;;;;4965353;28;19914;-74
2022/12/07 04:22:22;;;;;;;;;;;9.70;99.90;;;;;;4966235;28;19910;-75
2022/12/07 04:24:48;;;;;;;;;;;9.70;99.90;;;;;;4967414;28;19911;-75
2022/12/07 04:27:14;;;;;;;;;;;9.70;99.90;;;;;;4971827;28;19917;-74
2022/12/07 04:29:39;;;;;;;;;;;9.60;99.90;;;;;;4977404;28;20387;-76
2022/12/07 04:32:05;;;;;;;;;;;9.40;99.90;;;;;;4974987;28;19933;-76
2022/12/07 04:34:30;;;;;;;;;;;9.40;99.90;;;;;;4967120;28;19914;-75
2022/12/07 04:36:56;;;;;;;;;;;9.10;99.90;;;;;;4974812;28;19949;-75
2022/12/07 04:39:23;;;;;;;;;;;9.10;99.90;;;;;;4968719;28;19993;-74
2022/12/07 04:41:48;;;;;;;;;;;9.20;99.90;;;;;;4980998;28;19964;-75
2022/12/07 04:44:15;;;;;;;;;;;9.00;99.90;;;;;;4963506;28;19949;-76
2022/12/07 04:46:40;;;;;;;;;;;9.00;99.90;;;;;;4965213;28;19937;-77
2022/12/07 04:49:06;;;;;;;;;;;8.80;99.90;;;;;;4972251;28;20498;-75
2022/12/07 04:51:31;;;;;;;;;;;8.70;99.90;;;;;;4974060;28;19910;-75
2022/12/07 04:53:57;;;;;;;;;;;8.70;99.90;;;;;;4977047;28;19914;-75
2022/12/07 04:56:23;;;;;;;;;;;8.80;99.90;;;;;;4965777;28;19915;-77
2022/12/07 04:58:49;;;;;;;;;;;8.60;99.90;;;;;;4966655;28;19922;-76
2022/12/07 05:01:16;;;;;;;;;;;8.70;99.90;;;;;;4965643;28;19918;-75
2022/12/07 05:03:41;;;;;;;;;;;8.60;99.90;;;;;;4968730;28;19965;-75
2022/12/07 05:06:07;;;;;;;;;;;8.60;99.90;;;;;;4972020;28;20261;-74
2022/12/07 05:08:33;;;;;;;;;;;8.30;99.90;;;;;;4970400;28;19915;-77
2022/12/07 05:10:59;;;;;;;;;;;8.50;99.90;;;;;;4966614;28;19914;-76
2022/12/07 05:13:25;;;;;;;;;;;8.50;99.90;;;;;;4972472;28;20405;-75
2022/12/07 05:15:50;;;;;;;;;;;8.70;99.90;;;;;;4977688;28;19918;-76
2022/12/07 05:18:16;;;;;;;;;;;8.70;99.90;;;;;;4970928;28;19914;-75
2022/12/07 05:20:42;;;;;;;;;;;8.70;99.90;;;;;;4970629;28;19914;-75
2022/12/07 05:23:07;;;;;;;;;;;8.60;99.90;;;;;;4966786;28;19914;-74
2022/12/07 05:25:33;;;;;;;;;;;8.50;99.90;;;;;;4972565;28;19917;-76
2022/12/07 05:27:58;;;;;;;;;;;8.70;99.90;;;;;;4966857;28;19914;-74
2022/12/07 05:30:24;;;;;;;;;;;8.70;99.90;;;;;;4975331;28;19917;-76
2022/12/07 05:32:50;;;;;;;;;;;8.90;99.90;;;;;;4971374;28;19933;-74
2022/12/07 05:35:16;;;;;;;;;;;9.00;99.90;;;;;;4969765;28;19950;-74
2022/12/07 05:37:42;;;;;;;;;;;9.00;99.90;;;;;;4972022;28;20295;-74
2022/12/07 05:40:08;;;;;;;;;;;9.10;99.90;;;;;;4964812;28;19915;-76
2022/12/07 05:42:34;;;;;;;;;;;9.10;99.90;;;;;;4973509;28;20005;-75
2022/12/07 05:44:59;;;;;;;;;;;9.30;99.90;;;;;;4983257;28;19918;-77
2022/12/07 05:47:25;;;;;;;;;;;9.20;99.90;;;;;;4984619;28;19917;-75
2022/12/07 05:49:50;;;;;;;;;;;9.20;99.90;;;;;;4985425;28;19972;-75
2022/12/07 05:52:16;;;;;;;;;;;9.10;99.90;;;;;;4973628;28;19925;-76
2022/12/07 05:54:42;;;;;;;;;;;8.90;99.90;;;;;;4967769;28;20585;-74
2022/12/07 05:57:07;;;;;;;;;;;8.70;99.90;;;;;;4978380;28;19988;-75
2022/12/07 05:59:33;;;;;;;;;;;8.60;99.90;;;;;;4972548;28;19913;-78
2022/12/07 06:02:00;;;;;;;;;;;8.70;99.90;;;;;;4985503;28;19918;-76
2022/12/07 06:04:27;;;;;;;;;;;8.60;99.90;;;;;;4964520;28;20012;-76
2022/12/07 06:06:53;;;;;;;;;;;8.60;99.90;;;;;;4968726;28;19918;-76
2022/12/07 06:09:20;;;;;;;;;;;8.50;99.90;;;;;;4959657;28;20384;-76
2022/12/07 06:14:29;;;;;;;;;;;8.30;99.90;;;;;;4969382;28;19928;-80
2022/12/07 06:16:55;;;;;;;;;;;8.20;99.90;;;;;;4980950;28;20359;-76
2022/12/07 06:19:21;;;;;;;;;;;8.10;99.90;;;;;;4987896;28;19920;-76
2022/12/07 06:21:47;;;;;;;;;;;8.10;99.90;;;;;;4996337;28;19938;-75
2022/12/07 06:24:13;;;;;;;;;;;7.80;99.90;;;;;;4980086;28;19917;-77
2022/12/07 06:26:39;;;;;;;;;;;7.80;99.90;;;;;;4971510;28;19926;-76
2022/12/07 06:29:05;;;;;;;;;;;7.90;99.90;;;;;;4969644;28;19918;-76
2022/12/07 06:31:30;;;;;;;;;;;7.90;99.90;;;;;;4965496;28;19915;-77
2022/12/07 06:33:59;;;;;;;;;;;7.80;99.90;;;;;;4972858;28;19914;-75
2022/12/07 06:36:25;;;;;;;;;;;7.70;99.90;;;;;;4968919;28;19925;-76
2022/12/07 06:38:50;;;;;;;;;;;7.70;99.90;;;;;;4968206;28;19918;-73
2022/12/07 06:41:16;;;;;;;;;;;7.50;99.90;;;;;;4965327;28;19918;-76
2022/12/07 06:43:42;;;;;;;;;;;7.60;99.90;;;;;;4982200;28;19910;-74
2022/12/07 06:46:07;;;;;;;;;;;7.60;99.90;;;;;;4974282;28;19922;-76
2022/12/07 06:48:33;;;;;;;;;;;7.70;99.90;;;;;;4972689;28;19921;-75
2022/12/07 06:50:58;;;;;;;;;;;8.00;99.90;;;;;;4974536;28;19978;-75
2022/12/07 06:53:24;;;;;;;;;;;7.80;99.90;;;;;;4971307;28;19914;-76
2022/12/07 06:55:49;;;;;;;;;;;7.90;99.90;;;;;;4973652;28;20319;-75
2022/12/07 06:58:15;;;;;;;;;;;7.90;99.90;;;;;;4971177;28;19965;-75
2022/12/07 07:00:40;;;;;;;;;;;7.60;99.90;;;;;;4969228;28;19925;-74
2022/12/07 07:03:06;;;;;;;;;;;7.80;99.90;;;;;;4973153;28;19914;-75
2022/12/07 07:05:32;;;;;;;;;;;7.70;99.90;;;;;;4977471;28;19917;-76
2022/12/07 07:07:57;;;;;;;;;;;7.70;99.90;;;;;;4971420;28;19910;-75
2022/12/07 07:10:22;;;;;;;;;;;7.90;99.90;;;;;;4971452;28;19957;-77
2022/12/07 07:12:48;;;;;;;;;;;7.60;99.90;;;;;;4968537;28;19922;-76
2022/12/07 07:15:13;;;;;;;;;;;7.60;99.90;;;;;;4965272;28;20418;-75
2022/12/07 07:17:39;;;;;;;;;;;7.70;99.90;;;;;;4976315;28;19961;-76
2022/12/07 07:20:05;;;;;;;;;;;7.70;99.90;;;;;;4965317;28;19910;-75
2022/12/07 07:22:30;;;;;;;;;;;7.70;99.90;;;;;;4965647;28;19918;-75
2022/12/07 07:24:56;;;;;;;;;;;7.70;99.90;;;;;;4964586;28;19910;-74
2022/12/07 07:27:21;;;;;;;;;;;7.60;99.90;;;;;;4969825;28;20366;-75
2022/12/07 07:29:47;;;;;;;;;;;7.90;99.90;;;;;;4998743;28;19910;-75
2022/12/07 07:32:12;;;;;;;;;;;7.80;99.90;;;;;;4975808;28;19996;-73
2022/12/07 07:34:38;;;;;;;;;;;7.60;99.90;;;;;;4968153;28;19910;-75
2022/12/07 07:37:03;;;;;;;;;;;7.60;99.90;;;;;;4976386;28;19920;-75
2022/12/07 07:39:29;;;;;;;;;;;7.70;99.90;;;;;;4964454;28;20283;-75
2022/12/07 07:41:54;;;;;;;;;;;7.70;99.90;;;;;;4968357;28;19921;-75
2022/12/07 07:44:20;;;;;;;;;;;7.80;99.90;;;;;;4972923;28;19953;-74
2022/12/07 07:46:45;;;;;;;;;;;8.00;99.90;;;;;;4969219;28;20443;-75
2022/12/07 07:49:11;;;;;;;;;;;8.10;99.90;;;;;;4965309;28;20368;-76
2022/12/07 07:51:36;;;;;;;;;;;8.30;99.90;;;;;;4962044;28;19914;-75
2022/12/07 07:54:03;;;;;;;;;;;8.50;99.90;;;;;;4970798;28;20139;-71
2022/12/07 07:56:29;;;;;;;;;;;8.60;99.90;;;;;;4967057;28;19914;-72
2022/12/07 07:58:54;;;;;;;;;;;8.30;99.90;;;;;;4980698;28;19921;-71
2022/12/07 08:01:20;;;;;;;;;;;8.30;99.90;;;;;;4975479;28;19976;-72
2022/12/07 08:03:46;;;;;;;;;;;8.30;99.90;;;;;;4965157;28;19914;-72
2022/12/07 08:06:11;;;;;;;;;;;8.30;99.90;;;;;;4974588;28;19993;-73
2022/12/07 08:08:37;;;;;;;;;;;8.30;99.90;;;;;;4967848;28;20032;-72
2022/12/07 08:11:06;;;;;;;;;;;8.50;99.90;;;;;;4973600;28;19984;-73
2022/12/07 08:13:31;;;;;;;;;;;8.20;99.90;;;;;;4977423;28;19921;-73
2022/12/07 08:15:57;;;;;;;;;;;8.30;99.90;;;;;;4977566;28;19914;-73
2022/12/07 08:18:22;;;;;;;;;;;8.30;99.90;;;;;;4969914;28;20288;-72
2022/12/07 08:20:48;;;;;;;;;;;8.50;99.90;;;;;;4967909;28;19961;-73
2022/12/07 08:23:13;;;;;;;;;;;8.70;99.90;;;;;;4977374;28;20001;-72
2022/12/07 08:25:39;;;;;;;;;;;8.60;99.90;;;;;;4965226;28;19918;-72
2022/12/07 08:28:05;;;;;;;;;;;8.60;99.90;;;;;;4972490;28;19910;-72
2022/12/07 08:30:31;;;;;;;;;;;8.30;99.90;;;;;;4968518;28;19981;-72
2022/12/07 08:32:56;;;;;;;;;;;8.20;99.90;;;;;;4970446;28;20404;-73
2022/12/07 08:35:22;;;;;;;;;;;8.30;99.90;;;;;;4965999;28;19957;-72
2022/12/07 08:37:48;;;;;;;;;;;8.10;99.90;;;;;;4981432;28;20280;-76
2022/12/07 08:40:18;;;;;;;;;;;8.00;99.90;;;;;;4963233;28;19910;-75
2022/12/07 08:42:47;;;;;;;;;;;8.20;99.90;;;;;;4974222;28;19984;-75
2022/12/07 08:45:14;;;;;;;;;;;8.20;99.90;;;;;;4980003;28;20295;-76
2022/12/07 08:47:44;;;;;;;;;;;8.30;99.90;;;;;;4976664;28;19910;-76
2022/12/07 08:50:11;;;;;;;;;;;8.60;99.90;;;;;;4986028;28;19917;-76
2022/12/07 08:52:36;;;;;;;;;;;8.70;99.90;;;;;;4963377;28;19941;-75
2022/12/07 08:55:03;;;;;;;;;;;8.70;99.90;;;;;;4982468;28;19910;-75
2022/12/07 08:57:29;;;;;;;;;;;8.90;99.90;;;;;;4990168;28;19910;-78
2022/12/07 08:59:55;;;;;;;;;;;8.90;99.90;;;;;;4979341;28;19922;-77
2022/12/07 09:02:20;;;;;;;;;;;9.00;99.90;;;;;;4978728;28;19914;-76
2022/12/07 09:04:46;;;;;;;;;;;8.90;99.90;;;;;;4979047;28;20344;-75
2022/12/07 09:07:11;;;;;;;;;;;8.90;99.90;;;;;;4978941;28;19918;-76
2022/12/07 09:09:37;;;;;;;;;;;9.00;99.90;;;;;;4987458;28;19997;-74
2022/12/07 09:12:03;;;;;;;;;;;8.90;99.90;;;;;;4974231;28;19918;-74
2022/12/07 09:14:28;;;;;;;;;;;9.10;99.90;;;;;;4981024;28;19911;-79
2022/12/07 09:16:54;;;;;;;;;;;9.10;99.90;;;;;;4989424;28;19917;-76
2022/12/07 09:19:19;;;;;;;;;;;9.10;99.90;;;;;;4984877;28;20181;-75
2022/12/07 09:21:45;;;;;;;;;;;9.10;99.90;;;;;;4981507;28;19910;-75
2022/12/07 09:24:11;;;;;;;;;;;9.10;99.90;;;;;;4978708;28;20323;-77
2022/12/07 09:26:39;;;;;;;;;;;9.20;99.90;;;;;;4974424;28;19933;-79
2022/12/07 09:29:04;;;;;;;;;;;9.30;99.90;;;;;;4976337;28;19993;-75
2022/12/07 09:31:30;;;;;;;;;;;9.30;99.90;;;;;;4972362;28;19918;-76
2022/12/07 09:33:59;;;;;;;;;;;9.30;99.90;;;;;;4979808;28;20588;-74
2022/12/07 09:36:25;;;;;;;;;;;9.40;99.90;;;;;;4978308;28;20346;-75
2022/12/07 09:38:51;;;;;;;;;;;9.40;99.90;;;;;;4975579;28;19913;-76
2022/12/07 09:41:17;;;;;;;;;;;9.60;99.90;;;;;;4978455;28;19957;-75
2022/12/07 09:43:43;;;;;;;;;;;9.60;99.90;;;;;;4972683;28;19993;-76
2022/12/07 09:46:13;;;;;;;;;;;9.60;99.90;;;;;;4978494;28;19952;-76
2022/12/07 09:48:39;;;;;;;;;;;9.80;99.90;;;;;;4979901;28;19910;-75
2022/12/07 09:51:18;;;;;;;;;;;9.70;99.90;;;;;;4983215;28;20016;-76
2022/12/07 09:53:44;;;;;;;;;;;9.90;99.90;;;;;;4969500;28;19914;-75
2022/12/07 09:56:14;;;;;;;;;;;9.80;99.90;;;;;;4971588;28;19929;-76
2022/12/07 09:58:40;;;;;;;;;;;9.70;99.90;;;;;;4971568;28;19918;-74
2022/12/07 10:01:12;;;;;;;;;;;9.70;99.90;;;;;;4970561;28;19918;-76
2022/12/07 10:03:39;;;;;;;;;;;9.70;99.90;;;;;;4973230;28;19914;-76
2022/12/07 10:06:05;;;;;;;;;;;9.70;99.90;;;;;;4978075;28;19917;-77
2022/12/07 10:08:31;;;;;;;;;;;9.70;99.90;;;;;;4983668;28;19925;-75
2022/12/07 10:10:57;;;;;;;;;;;9.60;99.90;;;;;;4987981;28;19911;-75
2022/12/07 10:13:45;;;;;;;;;;;9.60;99.90;;;;;;4978741;28;19957;-74
2022/12/07 10:16:34;;;;;;;;;;;9.60;99.90;;;;;;4972539;28;19995;-74
2022/12/07 10:19:17;;;;;;;;;;;9.80;99.90;;;;;;4966632;28;19914;-77
2022/12/07 10:21:58;;;;;;;;;;;9.90;99.90;;;;;;4968455;28;19996;-75
2022/12/07 10:24:24;;;;;;;;;;;9.80;99.90;;;;;;4970735;28;19915;-73
2022/12/07 10:26:53;;;;;;;;;;;9.80;99.90;;;;;;4978645;28;19910;-76
2022/12/07 10:29:23;;;;;;;;;;;9.90;99.90;;;;;;4977932;28;19922;-77
2022/12/07 10:31:56;;;;;;;;;;;10.10;99.90;;;;;;4979319;28;19922;-75
2022/12/07 10:34:26;;;;;;;;;;;10.20;99.90;;;;;;4971823;28;19914;-75
2022/12/07 10:36:53;;;;;;;;;;;10.30;99.90;;;;;;4977142;28;19919;-76
2022/12/07 10:39:20;;;;;;;;;;;10.30;99.90;;;;;;4966937;28;20058;-76
2022/12/07 10:41:56;;;;;;;;;;;10.20;99.90;;;;;;4973539;28;20399;-78
2022/12/07 10:44:22;;;;;;;;;;;10.00;99.90;;;;;;4987831;28;20141;-76
2022/12/07 10:46:53;;;;;;;;;;;10.10;99.90;;;;;;4989724;28;19988;-78
2022/12/07 10:49:25;;;;;;;;;;;9.90;99.90;;;;;;4982381;28;19944;-76
2022/12/07 10:52:15;;;;;;;;;;;9.70;99.90;;;;;;4993174;28;20150;-78
2022/12/07 10:55:00;;;;;;;;;;;9.70;99.90;;;;;;4995540;28;19922;-77
2022/12/07 10:57:28;;;;;;;;;;;9.60;99.90;;;;;;5004404;28;19969;-79
2022/12/07 11:00:09;;;;;;;;;;;9.50;99.90;;;;;;5004450;28;19979;-76
2022/12/07 11:02:44;;;;;;;;;;;9.40;99.90;;;;;;4979457;28;19913;-77
2022/12/07 11:05:17;;;;;;;;;;;9.70;99.90;;;;;;4981103;28;19975;-75
2022/12/07 11:08:12;;;;;;;;;;;9.90;99.90;;;;;;4975461;28;19953;-78
2022/12/07 11:10:41;;;;;;;;;;;10.00;99.90;;;;;;4967131;28;19961;-75
2022/12/07 11:13:16;;;;;;;;;;;10.10;99.90;;;;;;4973146;28;19964;-76
2022/12/07 11:16:00;;;;;;;;;;;10.00;99.90;;;;;;4974859;28;19917;-76
2022/12/07 11:18:44;;;;;;;;;;;10.10;99.90;;;;;;4990483;28;19957;-79
2022/12/07 11:21:13;;;;;;;;;;;9.70;99.90;;;;;;4970532;28;20146;-74
2022/12/07 11:23:54;;;;;;;;;;;9.80;99.90;;;;;;4973785;28;19910;-75
2022/12/07 11:26:32;;;;;;;;;;;9.70;99.90;;;;;;4966121;28;20368;-76
2022/12/07 11:28:57;;;;;;;;;;;9.60;99.90;;;;;;4968925;28;19914;-77
2022/12/07 11:31:35;;;;;;;;;;;9.70;99.90;;;;;;4977342;28;19965;-77
2022/12/07 11:34:17;;;;;;;;;;;9.60;99.90;;;;;;4982659;28;19922;-78
2022/12/07 11:36:44;;;;;;;;;;;9.70;99.90;;;;;;4987269;28;19910;-75
2022/12/07 11:39:19;;;;;;;;;;;9.60;99.90;;;;;;4976279;28;20222;-76
2022/12/07 11:41:49;;;;;;;;;;;9.70;99.90;;;;;;4996437;28;19954;-77
2022/12/07 11:44:41;;;;;;;;;;;10.10;99.90;;;;;;4978667;28;20616;-76
2022/12/07 11:47:08;;;;;;;;;;;10.20;99.90;;;;;;4968707;28;19910;-77
2022/12/07 11:49:35;;;;;;;;;;;9.70;99.90;;;;;;4979261;28;19993;-76
2022/12/07 11:52:02;;;;;;;;;;;9.50;99.90;;;;;;4974520;28;19913;-74
2022/12/07 11:54:30;;;;;;;;;;;9.40;99.90;;;;;;4971160;28;19915;-78
2022/12/07 11:56:59;;;;;;;;;;;9.40;99.90;;;;;;4972723;28;19992;-75
2022/12/07 11:59:39;;;;;;;;;;;9.30;99.90;;;;;;4973566;28;19957;-77
2022/12/07 12:02:28;;;;;;;;;;;9.20;99.90;;;;;;4972110;28;19920;-76
2022/12/07 12:04:56;;;;;;;;;;;9.20;99.90;;;;;;4963591;28;19945;-75
2022/12/07 12:07:22;;;;;;;;;;;9.60;99.90;;;;;;4968255;28;19965;-78
2022/12/07 12:09:50;;;;;;;;;;;9.50;99.90;;;;;;4960647;28;19911;-74
2022/12/07 12:12:16;;;;;;;;;;;9.50;99.90;;;;;;4974301;28;19937;-76
2022/12/07 12:15:00;;;;;;;;;;;9.20;99.90;;;;;;4990008;28;19918;-75
2022/12/07 12:17:35;;;;;;;;;;;9.20;99.90;;;;;;4970194;28;19911;-75
2022/12/07 12:20:05;;;;;;;;;;;9.10;99.90;;;;;;4974774;28;19952;-76
2022/12/07 12:22:37;;;;;;;;;;;8.90;99.90;;;;;;4988224;28;19914;-74
2022/12/07 12:25:04;;;;;;;;;;;8.90;99.90;;;;;;4979065;28;19917;-75
2022/12/07 12:27:35;;;;;;;;;;;8.80;99.90;;;;;;4983068;28;19910;-76
2022/12/07 12:30:02;;;;;;;;;;;8.80;99.90;;;;;;4989016;28;20382;-76
2022/12/07 12:32:41;;;;;;;;;;;8.50;99.90;;;;;;4987889;28;19925;-76
2022/12/07 12:35:18;;;;;;;;;;;8.00;99.90;;;;;;4974326;28;19985;-78
2022/12/07 12:37:45;;;;;;;;;;;7.70;99.90;;;;;;4987852;28;20075;-78
2022/12/07 12:40:16;;;;;;;;;;;7.80;99.90;;;;;;4981627;28;20383;-78
2022/12/07 12:42:51;;;;;;;;;;;7.90;99.90;;;;;;4980403;28;20275;-74
2022/12/07 12:45:30;;;;;;;;;;;8.00;99.90;;;;;;5000199;28;19949;-75
2022/12/07 12:48:02;;;;;;;;;;;8.10;99.90;;;;;;4978318;28;19936;-73
2022/12/07 12:50:32;;;;;;;;;;;8.30;99.90;;;;;;4981714;28;19911;-72
2022/12/07 12:52:57;;;;;;;;;;;8.50;99.90;;;;;;4968493;28;19915;-74
2022/12/07 12:55:46;;;;;;;;;;;8.60;99.90;;;;;;4994982;28;20287;-77
2022/12/07 12:58:17;;;;;;;;;;;8.70;99.90;;;;;;4968111;28;20343;-78
2022/12/07 13:00:43;;;;;;;;;;;8.80;99.90;;;;;;4979528;28;19918;-74
2022/12/07 13:03:21;;;;;;;;;;;9.00;99.90;;;;;;4974428;28;19909;-74
2022/12/07 13:05:46;;;;;;;;;;;9.20;99.90;;;;;;4983278;28;19914;-75
2022/12/07 13:08:12;;;;;;;;;;;9.50;99.90;;;;;;4974757;28;19960;-78
2022/12/07 13:10:39;;;;;;;;;;;9.80;99.90;;;;;;4990161;28;20277;-74
2022/12/07 13:13:11;;;;;;;;;;;9.40;99.90;;;;;;4974626;28;20414;-76
2022/12/07 13:15:42;;;;;;;;;;;9.60;99.90;;;;;;4970921;28;20308;-73
2022/12/07 13:18:07;;;;;;;;;;;9.60;99.90;;;;;;4971600;28;19914;-75
2022/12/07 13:20:46;;;;;;;;;;;9.40;99.90;;;;;;4985160;28;20195;-77
2022/12/07 13:23:13;;;;;;;;;;;9.30;99.90;;;;;;4975254;28;19910;-75
2022/12/07 13:25:49;;;;;;;;;;;9.00;99.90;;;;;;4988923;28;20488;-74
2022/12/07 13:28:18;;;;;;;;;;;9.00;99.90;;;;;;4985687;28;19910;-77
2022/12/07 13:30:58;;;;;;;;;;;8.90;99.90;;;;;;4975065;28;19910;-78
2022/12/07 13:33:24;;;;;;;;;;;9.10;99.90;;;;;;4969541;28;19915;-74
2022/12/07 13:35:53;;;;;;;;;;;9.20;99.90;;;;;;4973375;28;19914;-75
2022/12/07 13:38:45;;;;;;;;;;;9.00;99.90;;;;;;4981096;28;19920;-75
2022/12/07 13:41:10;;;;;;;;;;;8.90;99.90;;;;;;4968716;28;20021;-76
2022/12/07 13:43:42;;;;;;;;;;;9.10;99.90;;;;;;4979504;28;20004;-75
2022/12/07 13:46:09;;;;;;;;;;;9.20;99.90;;;;;;4966678;28;19910;-76
2022/12/07 13:48:46;;;;;;;;;;;9.00;99.90;;;;;;4977143;28;19936;-74
2022/12/07 13:51:19;;;;;;;;;;;8.90;99.90;;;;;;4984252;28;19918;-74
2022/12/07 13:53:49;;;;;;;;;;;8.90;99.90;;;;;;4968826;28;20283;-75
2022/12/07 13:56:15;;;;;;;;;;;9.00;99.90;;;;;;4978549;28;19910;-74
2022/12/07 13:58:41;;;;;;;;;;;9.00;99.90;;;;;;4973477;28;19985;-75
2022/12/07 14:01:07;;;;;;;;;;;9.20;99.90;;;;;;4968364;28;20363;-76
2022/12/07 14:03:33;;;;;;;;;;;9.00;99.90;;;;;;4977641;28;19910;-75
2022/12/07 14:06:07;;;;;;;;;;;9.00;99.90;;;;;;4990037;28;19910;-76
2022/12/07 14:08:32;;;;;;;;;;;9.00;99.90;;;;;;4970393;28;19918;-74
2022/12/07 14:10:58;;;;;;;;;;;9.10;99.90;;;;;;4981861;28;19914;-75
2022/12/07 14:13:31;;;;;;;;;;;9.30;99.90;;;;;;4977528;28;19968;-74
2022/12/07 14:15:58;;;;;;;;;;;9.20;99.90;;;;;;4962949;28;20074;-74
2022/12/07 14:18:35;;;;;;;;;;;9.20;99.90;;;;;;4968127;28;19910;-73
2022/12/07 14:21:10;;;;;;;;;;;9.30;99.90;;;;;;4977849;28;20052;-74
2022/12/07 14:23:36;;;;;;;;;;;9.30;99.90;;;;;;4979753;28;19965;-73
2022/12/07 14:26:11;;;;;;;;;;;9.30;99.90;;;;;;4969297;28;20385;-73
2022/12/07 14:28:37;;;;;;;;;;;9.30;99.90;;;;;;4977752;28;20403;-75
2022/12/07 14:31:03;;;;;;;;;;;9.30;99.90;;;;;;4975518;28;19946;-73
2022/12/07 14:33:29;;;;;;;;;;;9.20;99.90;;;;;;4972026;28;20100;-75
2022/12/07 14:35:55;;;;;;;;;;;9.10;99.90;;;;;;4970733;28;19922;-74
2022/12/07 14:38:21;;;;;;;;;;;9.00;99.90;;;;;;4968001;28;20344;-75
2022/12/07 14:40:47;;;;;;;;;;;9.00;99.90;;;;;;4973719;28;19914;-74